Time;durP1;ratioP1;P1;durP2;ratioP2;P2;SDS_P1;SDS_P2;PMS_P1;PMS_P2;Temp;Humidity;BMP_temperature;BMP_pressure;BME280_temperature;BME280_humidity;BME280_pressure;Samples;Min_cycle;Max_cycle;Signal;HPM_P1;HPM_P2
2022/05/26 00:00:54;;;;;;;21.05;4.90;;;;;;;13.71;100.00;101394.44;4959870;28;20030;-74
2022/05/26 00:03:19;;;;;;;15.57;4.90;;;;;;;13.75;100.00;101397.63;4960082;28;20027;-74
2022/05/26 00:05:44;;;;;;;14.77;5.35;;;;;;;13.78;100.00;101399.97;4958836;28;20033;-74
2022/05/26 00:08:10;;;;;;;18.50;5.93;;;;;;;13.80;100.00;101400.63;4975214;28;20435;-74
2022/05/26 00:10:35;;;;;;;21.50;5.80;;;;;;;13.74;100.00;101406.56;4953700;28;20062;-73
2022/05/26 00:13:01;;;;;;;18.48;5.95;;;;;;;13.67;100.00;101397.56;4960017;28;20035;-74
2022/05/26 00:15:26;;;;;;;22.42;6.95;;;;;;;13.65;100.00;101402.22;4958388;28;20441;-73
2022/05/26 00:17:52;;;;;;;17.17;5.65;;;;;;;13.64;100.00;101403.22;4974914;28;20114;-73
2022/05/26 00:20:17;;;;;;;20.58;6.53;;;;;;;13.51;100.00;101393.84;4959228;28;20027;-74
2022/05/26 00:22:43;;;;;;;17.85;5.72;;;;;;;13.52;100.00;101398.16;4962842;28;20054;-74
2022/05/26 00:25:08;;;;;;;17.65;5.82;;;;;;;13.52;100.00;101405.28;4955279;28;20035;-73
2022/05/26 00:27:34;;;;;;;21.58;5.65;;;;;;;13.45;100.00;101402.41;4957059;28;20058;-74
2022/05/26 00:29:59;;;;;;;16.27;5.88;;;;;;;13.44;100.00;101402.59;4958341;28;20031;-73
2022/05/26 00:32:24;;;;;;;22.30;6.22;;;;;;;13.33;100.00;101390.41;4964719;28;20490;-73
2022/05/26 00:34:50;;;;;;;20.13;7.18;;;;;;;13.27;100.00;101391.81;4980979;28;20038;-73
2022/05/26 00:37:15;;;;;;;24.15;7.00;;;;;;;13.26;100.00;101407.88;4951116;28;20031;-73
2022/05/26 00:39:41;;;;;;;22.95;8.02;;;;;;;13.16;100.00;101400.00;4984491;28;20474;-73
2022/05/26 00:42:07;;;;;;;18.50;7.55;;;;;;;13.16;100.00;101405.31;4985235;28;20026;-73
2022/05/26 00:44:34;;;;;;;16.67;6.38;;;;;;;13.14;100.00;101412.59;4983978;28;20077;-73
2022/05/26 00:47:06;;;;;;;23.38;6.72;;;;;;;13.11;100.00;101419.03;4981973;28;20088;-73
2022/05/26 00:49:46;;;;;;;15.38;6.45;;;;;;;13.04;100.00;101407.34;4986282;28;20026;-73
2022/05/26 00:52:20;;;;;;;28.52;7.43;;;;;;;12.99;100.00;101404.34;4986398;28;20034;-73
2022/05/26 00:54:49;;;;;;;18.88;6.75;;;;;;;13.06;100.00;101421.28;4979115;28;20054;-73
2022/05/26 00:57:39;;;;;;;21.23;5.90;;;;;;;13.03;100.00;101420.78;4982513;28;20023;-73
2022/05/26 01:00:09;;;;;;;22.33;7.93;;;;;;;12.98;100.00;101418.59;4977865;28;20057;-73
2022/05/26 01:02:44;;;;;;;22.25;7.15;;;;;;;12.85;100.00;101412.84;4960969;28;20592;-74
2022/05/26 01:05:20;;;;;;;14.30;6.78;;;;;;;12.90;100.00;101426.44;4983570;28;20026;-73
2022/05/26 01:07:47;;;;;;;22.02;6.78;;;;;;;12.90;100.00;101429.09;4978934;28;20421;-73
2022/05/26 01:10:15;;;;;;;17.58;6.18;;;;;;;12.86;100.00;101428.56;4984285;28;20406;-73
2022/05/26 01:12:40;;;;;;;20.25;6.13;;;;;;;12.80;100.00;101420.38;4982406;28;20054;-74
2022/05/26 01:15:10;;;;;;;20.45;5.90;;;;;;;12.85;100.00;101428.72;4977227;28;20069;-73
2022/05/26 01:18:18;;;;;;;21.13;5.70;;;;;;;12.89;100.00;101441.53;4982892;28;20027;-74
2022/05/26 01:21:16;;;;;;;17.92;6.22;;;;;;;12.90;100.00;101434.41;4986568;28;20034;-72
2022/05/26 01:23:56;;;;;;;19.98;5.68;;;;;;;12.94;100.00;101441.06;4979083;28;20027;-73
2022/05/26 01:26:42;;;;;;;18.73;6.47;;;;;;;12.93;100.00;101442.88;4977636;28;20023;-74
2022/05/26 01:29:29;;;;;;;19.50;5.78;;;;;;;12.95;100.00;101440.88;4982255;28;20030;-73
2022/05/26 01:32:15;;;;;;;21.10;5.38;;;;;;;12.99;100.00;101452.03;4982472;28;20045;-73
2022/05/26 01:34:52;;;;;;;28.00;5.45;;;;;;;13.00;100.00;101456.38;4984972;28;20062;-73
2022/05/26 01:37:20;;;;;;;23.08;5.57;;;;;;;13.06;100.00;101462.84;4981219;28;20496;-73
2022/05/26 01:40:07;;;;;;;20.45;6.40;;;;;;;13.00;100.00;101466.97;4980933;28;20347;-73
2022/05/26 01:43:10;;;;;;;14.73;4.72;;;;;;;12.79;100.00;101430.16;4984780;28;20096;-74
2022/05/26 01:45:47;;;;;;;19.10;4.30;;;;;;;13.00;100.00;101464.31;4977181;28;20027;-73
2022/05/26 01:48:35;;;;;;;22.52;5.13;;;;;;;13.07;100.00;101475.13;4985446;28;20026;-74
2022/05/26 01:51:32;;;;;;;11.23;3.80;;;;;;;13.07;100.00;101472.50;4977079;28;20022;-74
2022/05/26 01:54:25;;;;;;;15.27;4.38;;;;;;;13.11;100.00;101479.97;4981095;28;20039;-74
2022/05/26 01:57:13;;;;;;;15.75;4.00;;;;;;;13.10;100.00;101477.47;4975742;28;20065;-74
2022/05/26 01:59:45;;;;;;;7.30;2.90;;;;;;;13.02;100.00;101469.44;4985397;28;20039;-74
2022/05/26 02:02:18;;;;;;;17.73;3.90;;;;;;;13.02;100.00;101470.28;4979463;28;20065;-74
2022/05/26 02:04:49;;;;;;;15.02;3.53;;;;;;;13.11;100.00;101472.03;4985004;28;20634;-74
2022/05/26 02:07:40;;;;;;;16.35;3.72;;;;;;;13.12;100.00;101478.97;4978925;28;20030;-73
2022/05/26 02:10:15;;;;;;;11.43;3.28;;;;;;;13.15;100.00;101465.44;4981811;28;20034;-73
2022/05/26 02:12:51;;;;;;;15.95;3.63;;;;;;;13.19;100.00;101468.59;4980569;28;20023;-74
2022/05/26 02:15:30;;;;;;;18.80;4.07;;;;;;;13.20;100.00;101467.63;4957838;28;20042;-74
2022/05/26 02:18:02;;;;;;;15.10;3.65;;;;;;;13.05;100.00;101445.31;4976653;28;20145;-73
2022/05/26 02:20:47;;;;;;;17.08;3.50;;;;;;;13.04;100.00;101465.66;4967410;28;20534;-74
2022/05/26 02:23:32;;;;;;;15.02;3.17;;;;;;;13.07;100.00;101481.28;4975898;28;20030;-74
2022/05/26 02:26:00;;;;;;;15.23;3.55;;;;;;;12.95;100.00;101461.25;4987302;28;20460;-74
2022/05/26 02:28:26;;;;;;;13.75;3.33;;;;;;;13.02;100.00;101478.25;4982829;28;20061;-74
2022/05/26 02:30:53;;;;;;;13.02;3.42;;;;;;;12.97;100.00;101472.53;4978547;28;20061;-74
2022/05/26 02:33:18;;;;;;;15.70;3.22;;;;;;;13.05;100.00;101493.84;4979633;28;20379;-74
2022/05/26 02:35:49;;;;;;;17.38;3.42;;;;;;;13.00;100.00;101490.81;4974085;28;20398;-73
2022/05/26 02:38:22;;;;;;;9.52;2.95;;;;;;;12.97;100.00;101497.22;4978109;28;20105;-73
2022/05/26 02:40:48;;;;;;;17.55;4.03;;;;;;;12.87;100.00;101485.00;4973566;28;20081;-73
2022/05/26 02:43:19;;;;;;;20.92;3.70;;;;;;;12.93;100.00;101495.03;4951611;28;20035;-73
2022/05/26 02:46:16;;;;;;;12.18;4.65;;;;;;;12.95;100.00;101498.34;4956338;28;20070;-74
2022/05/26 02:49:09;;;;;;;17.52;3.53;;;;;;;12.96;100.00;101500.88;4975050;28;20027;-73
2022/05/26 02:52:00;;;;;;;18.40;4.03;;;;;;;12.88;100.00;101489.34;4973900;28;20467;-74
2022/05/26 02:54:40;;;;;;;;;;;;;;;12.94;100.00;101508.13;4979509;28;20077;-72
2022/05/26 02:57:24;;;;;;;20.00;4.82;;;;;;;12.85;100.00;101503.72;4971278;28;19914;-73
2022/05/26 03:00:18;;;;;;;14.13;3.90;;;;;;;12.77;100.00;101509.75;4969643;28;20027;-73
2022/05/26 03:03:06;;;;;;;19.38;3.38;;;;;;;12.66;100.00;101501.19;4972619;28;20049;-73
2022/05/26 03:05:50;;;;;;;16.83;4.63;;;;;;;12.66;100.00;101511.78;4975167;28;20018;-73
2022/05/26 03:08:19;;;;;;;11.70;3.05;;;;;;;12.65;100.00;101518.03;4979602;28;20023;-73
2022/05/26 03:11:00;;;;;;;13.70;3.17;;;;;;;12.61;100.00;101520.16;4983908;28;20027;-74
2022/05/26 03:13:25;;;;;;;15.23;3.40;;;;;;;12.60;100.00;101521.13;4979685;28;20385;-73
2022/05/26 03:15:52;;;;;;;10.75;3.10;;;;;;;12.48;100.00;101511.72;4987631;28;20057;-73
2022/05/26 03:18:18;;;;;;;8.20;2.65;;;;;;;12.52;100.00;101524.53;4979874;28;20035;-73
2022/05/26 03:20:43;;;;;;;11.50;2.50;;;;;;;12.56;100.00;101525.06;4976033;28;20073;-73
2022/05/26 03:23:09;;;;;;;15.05;3.47;;;;;;;12.56;100.00;101514.47;4976018;28;20038;-74
2022/05/26 03:25:34;;;;;;;14.55;2.95;;;;;;;12.58;100.00;101520.44;4978332;28;20030;-73
2022/05/26 03:27:59;;;;;;;16.65;3.55;;;;;;;12.60;100.00;101525.59;4985278;28;20069;-73
2022/05/26 03:30:25;;;;;;;6.50;2.17;;;;;;;12.61;100.00;101522.81;4975335;28;20037;-73
2022/05/26 03:32:50;;;;;;;10.02;2.33;;;;;;;12.62;100.00;101528.94;4975936;28;20034;-73
2022/05/26 03:40:56;;;;;;;8.52;2.42;;;;;;;12.59;100.00;101535.38;4972318;28;20113;-73
2022/05/26 03:43:41;;;;;;;10.43;2.40;;;;;;;12.58;100.00;101535.50;4978901;28;20045;-73
2022/05/26 03:46:06;;;;;;;7.03;1.90;;;;;;;12.60;100.00;101537.03;4975278;28;20023;-73
2022/05/26 03:48:32;;;;;;;13.07;2.00;;;;;;;12.58;100.00;101546.09;4976796;28;20160;-73
2022/05/26 03:50:58;;;;;;;14.95;2.08;;;;;;;12.60;100.00;101552.09;4967723;28;20031;-73
2022/05/26 03:53:24;;;;;;;7.43;1.95;;;;;;;12.57;100.00;101544.44;4977014;28;20078;-73
2022/05/26 03:55:50;;;;;;;14.15;2.03;;;;;;;12.64;100.00;101553.47;4976772;28;20027;-74
2022/05/26 03:58:17;;;;;;;12.30;2.30;;;;;;;12.69;100.00;101552.03;4973579;28;20035;-74
2022/05/26 04:00:42;;;;;;;11.95;1.95;;;;;;;12.70;100.00;101550.22;4964469;28;20030;-73
2022/05/26 04:03:08;;;;;;;14.13;3.10;;;;;;;12.75;100.00;101559.38;4955862;28;20039;-75
2022/05/26 04:05:33;;;;;;;13.63;3.10;;;;;;;12.79;100.00;101567.06;4977858;28;20069;-73
2022/05/26 04:07:58;;;;;;;7.03;1.25;;;;;;;12.70;99.90;101551.06;4959245;28;20029;-74
2022/05/26 04:10:24;;;;;;;9.88;1.95;;;;;;;12.80;99.87;101563.41;4977622;28;20041;-74
2022/05/26 04:12:49;;;;;;;10.70;2.03;;;;;;;12.75;99.15;101569.97;4960462;28;20248;-74
2022/05/26 04:15:17;;;;;;;8.35;1.52;;;;;;;12.64;99.12;101558.75;4993821;28;20035;-74
2022/05/26 04:17:43;;;;;;;5.03;1.75;;;;;;;12.75;99.87;101580.59;4970984;28;20030;-74
2022/05/26 04:20:11;;;;;;;11.45;1.90;;;;;;;12.76;99.72;101582.25;4962664;28;20049;-73
2022/05/26 04:22:36;;;;;;;11.20;1.77;;;;;;;12.81;99.30;101583.66;4970757;28;20394;-73
2022/05/26 04:25:02;;;;;;;5.38;1.42;;;;;;;12.75;98.68;101583.22;4987139;28;20041;-74
2022/05/26 04:27:30;;;;;;;8.60;2.20;;;;;;;12.81;98.68;101586.28;4980732;28;20034;-73
2022/05/26 04:29:55;;;;;;;12.10;2.42;;;;;;;12.62;98.30;101561.53;4973104;28;20441;-73
2022/05/26 04:32:21;;;;;;;10.70;1.77;;;;;;;12.82;98.21;101591.44;4977510;28;20110;-73
2022/05/26 04:34:48;;;;;;;5.57;1.20;;;;;;;12.64;97.86;101551.63;4979774;28;20402;-73
2022/05/26 04:37:25;;;;;;;6.43;1.55;;;;;;;12.79;98.14;101582.94;4966302;28;20419;-73
2022/05/26 04:39:50;;;;;;;8.55;1.60;;;;;;;12.82;98.21;101590.59;4972723;28;20109;-73
2022/05/26 04:42:17;;;;;;;12.48;2.40;;;;;;;12.92;98.27;101600.16;4979218;28;20141;-73
2022/05/26 04:44:44;;;;;;;6.38;1.83;;;;;;;12.91;97.97;101593.22;4973103;28;20023;-73
2022/05/26 04:47:11;;;;;;;6.50;1.20;;;;;;;13.02;97.53;101602.78;4987203;28;20122;-73
2022/05/26 04:49:37;;;;;;;7.13;1.30;;;;;;;13.02;97.62;101601.94;4979049;28;20452;-73
2022/05/26 04:52:07;;;;;;;6.65;1.33;;;;;;;13.15;97.28;101605.06;4975864;28;20023;-75
2022/05/26 04:54:33;;;;;;;6.40;1.50;;;;;;;13.24;96.20;101613.94;4974471;28;20026;-74
2022/05/26 04:56:59;;;;;;;9.13;1.58;;;;;;;13.30;95.89;101619.50;4976991;28;20040;-74
2022/05/26 04:59:25;;;;;;;9.05;1.73;;;;;;;13.45;95.58;101617.19;4974493;28;20026;-74
2022/05/26 05:01:50;;;;;;;5.55;1.70;;;;;;;13.52;94.24;101615.63;4974267;28;20490;-74
2022/05/26 05:04:16;;;;;;;6.82;1.30;;;;;;;13.65;93.83;101622.34;4974459;28;20042;-73
2022/05/26 05:06:41;;;;;;;4.95;1.65;;;;;;;13.67;93.65;101617.72;4975484;28;20054;-73
2022/05/26 05:09:06;;;;;;;5.45;1.42;;;;;;;13.64;93.18;101621.53;4974220;28;20023;-73
2022/05/26 05:11:32;;;;;;;4.03;1.13;;;;;;;13.63;92.78;101629.63;4976097;28;20402;-74
2022/05/26 05:14:03;;;;;;;9.45;1.88;;;;;;;13.67;92.42;101623.88;4971648;28;20057;-74
2022/05/26 05:16:34;;;;;;;4.45;1.33;;;;;;;13.81;91.83;101624.34;4958761;28;20039;-74
2022/05/26 05:19:00;;;;;;;3.95;1.55;;;;;;;13.92;91.60;101629.41;4974269;28;20027;-74
2022/05/26 05:21:41;;;;;;;10.65;1.88;;;;;;;14.06;91.51;101630.69;4969779;28;20054;-74
2022/05/26 05:24:14;;;;;;;4.63;0.80;;;;;;;14.13;91.05;101621.09;4977350;28;20138;-74
2022/05/26 05:26:45;;;;;;;8.63;1.20;;;;;;;14.33;89.58;101633.22;4982625;28;20042;-74
2022/05/26 05:29:15;;;;;;;5.32;0.73;;;;;;;14.31;88.96;101645.81;4975899;28;20109;-74
2022/05/26 05:31:47;;;;;;;5.43;0.93;;;;;;;14.36;88.68;101632.06;4957133;28;20120;-74
2022/05/26 05:34:21;;;;;;;4.50;0.82;;;;;;;14.38;88.45;101638.88;4977040;28;20031;-74
2022/05/26 05:36:46;;;;;;;7.10;1.48;;;;;;;14.45;88.38;101640.94;4975950;28;20031;-74
2022/05/26 05:39:12;;;;;;;3.25;0.93;;;;;;;14.56;88.66;101649.50;4977356;28;20022;-74
2022/05/26 05:41:37;;;;;;;2.88;0.80;;;;;;;14.56;87.74;101656.63;4989253;28;20061;-74
2022/05/26 05:44:04;;;;;;;6.65;1.25;;;;;;;14.62;87.33;101657.84;4958365;28;20038;-74
2022/05/26 05:46:53;;;;;;;10.20;1.50;;;;;;;14.52;86.42;101653.41;4972819;28;20045;-74
2022/05/26 05:49:23;;;;;;;2.65;1.10;;;;;;;14.62;86.73;101671.94;4969491;28;20026;-74
2022/05/26 05:51:49;;;;;;;4.90;1.10;;;;;;;14.67;86.73;101661.69;4976452;28;20389;-74
2022/05/26 05:54:15;;;;;;;6.18;1.30;;;;;;;14.61;85.62;101659.63;4982408;28;20034;-74
2022/05/26 05:56:40;;;;;;;4.93;1.00;;;;;;;14.79;85.42;101673.72;4976692;28;20022;-74
2022/05/26 05:59:05;;;;;;;7.88;1.05;;;;;;;14.89;86.07;101673.59;4979905;28;20030;-74
2022/05/26 06:01:31;;;;;;;3.45;1.05;;;;;;;14.99;84.79;101681.47;4984384;28;20038;-75
2022/05/26 06:03:56;;;;;;;6.57;1.85;;;;;;;15.16;85.16;101688.53;4979738;28;20061;-74
2022/05/26 06:06:22;;;;;;;4.82;1.13;;;;;;;15.26;84.34;101671.59;4979214;28;20098;-74
2022/05/26 06:08:48;;;;;;;5.65;1.05;;;;;;;15.30;83.62;101680.94;4973463;28;20050;-74
2022/05/26 06:11:13;;;;;;;5.70;1.45;;;;;;;15.45;83.99;101684.63;4980591;28;20022;-74
2022/05/26 06:13:38;;;;;;;6.28;1.40;;;;;;;15.52;83.43;101693.63;4973467;28;20034;-74
2022/05/26 06:16:05;;;;;;;4.00;1.00;;;;;;;15.60;83.47;101691.00;4987047;28;20081;-74
2022/05/26 06:18:32;;;;;;;10.32;2.15;;;;;;;15.89;82.86;101697.72;4974449;28;20054;-74
2022/05/26 06:21:06;;;;;;;10.70;1.40;;;;;;;15.88;81.59;101704.06;4975467;28;20104;-74
2022/05/26 06:23:32;;;;;;;4.20;0.63;;;;;;;15.81;81.67;101705.72;4981918;28;20478;-74
2022/05/26 06:25:58;;;;;;;5.57;1.33;;;;;;;15.55;82.01;101705.78;4974607;28;20022;-74
2022/05/26 06:31:09;;;;;;;4.93;1.13;;;;;;;15.53;81.94;101716.59;4977973;28;20551;-74
2022/05/26 06:39:04;;;;;;;7.13;0.75;;;;;;;16.22;79.68;101708.41;4983495;28;20041;-74
2022/05/26 06:44:14;;;;;;;3.58;0.82;;;;;;;17.11;76.95;101717.31;4980512;28;20475;-74
2022/05/26 06:46:40;;;;;;;8.88;1.38;;;;;;;17.16;76.11;101725.66;4973598;28;20062;-74
2022/05/26 06:49:06;;;;;;;9.30;1.40;;;;;;;17.18;75.90;101728.97;4985245;28;20042;-74
2022/05/26 06:51:36;;;;;;;6.88;1.23;;;;;;;17.13;76.04;101717.97;4978745;28;20260;-75
2022/05/26 06:54:03;;;;;;;4.90;0.75;;;;;;;17.24;75.94;101722.94;4985780;28;20018;-74
2022/05/26 06:56:29;;;;;;;4.50;1.02;;;;;;;17.50;75.85;101727.16;4979203;28;20038;-74
2022/05/26 06:58:54;;;;;;;8.82;1.02;;;;;;;17.61;75.30;101725.94;4992353;28;20482;-74
2022/05/26 07:01:20;;;;;;;4.90;1.30;;;;;;;17.87;74.79;101733.66;4960831;28;20041;-74
2022/05/26 07:03:45;;;;;;;6.85;0.90;;;;;;;17.68;73.09;101719.75;4975543;28;20057;-74
2022/05/26 07:06:20;;;;;;;3.53;0.70;;;;;;;17.86;74.47;101732.00;4960047;28;20030;-75
2022/05/26 07:08:47;;;;;;;4.93;1.13;;;;;;;18.04;72.09;101735.22;4975528;28;20158;-74
2022/05/26 07:11:15;;;;;;;8.05;1.00;;;;;;;17.81;73.14;101731.66;4975937;28;20463;-74
2022/05/26 07:13:40;;;;;;;5.47;0.98;;;;;;;17.66;73.53;101728.94;4975890;28;20026;-75
2022/05/26 07:16:10;;;;;;;2.25;0.95;;;;;;;17.51;73.88;101750.19;4960158;28;20034;-75
2022/05/26 07:18:36;;;;;;;6.57;1.00;;;;;;;17.31;74.27;101738.25;4964035;28;20042;-74
2022/05/26 07:21:03;;;;;;;8.43;1.05;;;;;;;17.21;74.30;101752.63;4962096;28;20057;-74
2022/05/26 07:23:29;;;;;;;6.95;1.15;;;;;;;17.14;74.84;101759.66;4973926;28;20034;-74
2022/05/26 07:25:55;;;;;;;5.60;1.02;;;;;;;17.07;74.50;101769.31;4975025;28;20534;-74
2022/05/26 07:28:23;;;;;;;4.00;0.80;;;;;;;17.13;75.49;101765.97;4968363;28;20073;-74
2022/05/26 07:30:49;;;;;;;2.85;0.60;;;;;;;17.07;74.98;101764.00;4960439;28;20026;-74
2022/05/26 07:33:14;;;;;;;5.18;1.10;;;;;;;17.03;74.41;101768.03;4977279;28;20478;-74
2022/05/26 07:35:40;;;;;;;3.90;0.70;;;;;;;17.36;77.19;101767.94;4976086;28;20023;-74
2022/05/26 07:43:34;;;;;;;8.68;1.17;;;;;;;18.17;72.81;101765.88;4959630;28;20050;-75
2022/05/26 07:46:00;;;;;;;3.45;0.82;;;;;;;18.44;71.29;101765.34;4962770;28;20395;-74
2022/05/26 07:48:25;;;;;;;5.95;1.52;;;;;;;18.59;71.92;101773.38;4955649;28;20518;-74
2022/05/26 07:50:51;;;;;;;5.57;1.10;;;;;;;18.78;71.19;101774.75;4958621;28;20110;-74
2022/05/26 07:53:16;;;;;;;4.88;0.95;;;;;;;19.09;70.44;101771.09;4958472;28;20035;-75
2022/05/26 07:55:42;;;;;;;9.80;1.40;;;;;;;18.98;68.85;101774.22;4957831;28;20684;-77
2022/05/26 07:58:12;;;;;;;2.85;1.13;;;;;;;18.82;68.74;101762.69;4959531;28;20063;-75
2022/05/26 08:00:39;;;;;;;4.82;1.10;;;;;;;18.66;68.76;101773.47;4954277;28;20035;-75
2022/05/26 08:03:05;;;;;;;7.05;1.40;;;;;;;18.50;69.14;101771.78;4970869;28;20032;-74
2022/05/26 08:05:31;;;;;;;4.18;0.93;;;;;;;18.73;70.28;101778.94;4968948;28;20086;-74
2022/05/26 08:07:57;;;;;;;7.13;1.10;;;;;;;18.81;69.76;101779.72;4956602;28;20034;-74
2022/05/26 08:10:23;;;;;;;6.40;0.90;;;;;;;18.96;68.35;101793.13;4947622;28;20462;-74
2022/05/26 08:12:48;;;;;;;5.53;1.00;;;;;;;18.81;68.45;101797.63;4958860;28;20031;-74
2022/05/26 08:15:13;;;;;;;2.88;0.70;;;;;;;18.64;68.36;101794.22;4956766;28;20036;-74
2022/05/26 08:17:39;;;;;;;6.13;1.30;;;;;;;18.50;68.90;101798.50;4959049;28;20038;-74
2022/05/26 08:20:06;;;;;;;8.20;1.35;;;;;;;18.77;69.11;101797.13;4964208;28;20439;-75
2022/05/26 08:22:32;;;;;;;6.90;1.23;;;;;;;19.00;68.49;101802.44;4955334;28;20035;-75
2022/05/26 08:24:59;;;;;;;7.55;0.80;;;;;;;19.30;66.49;101802.47;4962165;28;20018;-74
2022/05/26 08:27:25;;;;;;;5.65;0.95;;;;;;;19.38;65.88;101810.44;4961724;28;20668;-74
2022/05/26 08:29:54;;;;;;;5.32;0.80;;;;;;;19.74;65.58;101804.31;4961628;28;20019;-75
2022/05/26 08:32:21;;;;;;;6.00;0.80;;;;;;;20.29;65.33;101815.44;4958117;28;20042;-74
2022/05/26 08:34:46;;;;;;;5.20;1.25;;;;;;;20.57;61.34;101826.25;4963855;28;20165;-74
2022/05/26 08:37:20;;;;;;;3.83;0.77;;;;;;;20.94;62.84;101825.13;4958277;28;20142;-75
2022/05/26 08:39:46;;;;;;;4.03;0.60;;;;;;;21.93;60.40;101825.91;4962741;28;20070;-75
2022/05/26 08:42:32;;;;;;;3.35;0.57;;;;;;;22.39;55.55;101830.63;4981735;28;20058;-75
2022/05/26 08:45:02;;;;;;;6.18;1.13;;;;;;;22.82;55.15;101813.22;4977416;28;20033;-75
2022/05/26 08:47:33;;;;;;;;;;;;;;;22.71;54.89;101828.13;4976490;28;20509;-75
2022/05/26 08:50:11;;;;;;;4.60;0.73;;;;;;;23.79;55.00;101833.97;4974499;28;20518;-75
2022/05/26 08:52:39;;;;;;;3.38;0.63;;;;;;;24.18;54.58;101831.31;4983861;28;20022;-75
2022/05/26 08:55:07;;;;;;;6.10;0.98;;;;;;;24.46;51.98;101833.63;4977862;28;20030;-75
2022/05/26 08:57:44;;;;;;;6.88;0.88;;;;;;;23.98;53.95;101850.31;4979961;28;20031;-75
2022/05/26 09:00:13;;;;;;;4.47;1.00;;;;;;;24.36;52.59;101849.44;4983364;28;20066;-75
2022/05/26 09:02:40;;;;;;;6.82;1.00;;;;;;;24.49;53.08;101835.91;4960711;28;20401;-75
2022/05/26 09:05:19;;;;;;;6.70;1.23;;;;;;;25.45;51.41;101842.72;4964834;28;20644;-75
2022/05/26 09:13:45;;;;;;;4.68;0.82;;;;;;;25.79;50.98;101831.53;4980003;28;20517;-75
2022/05/26 09:16:11;;;;;;;5.45;1.13;;;;;;;26.47;47.12;101843.91;4980866;28;20031;-75
2022/05/26 09:18:37;;;;;;;3.47;0.80;;;;;;;27.24;47.68;101848.47;4958853;28;20034;-75
2022/05/26 09:21:21;;;;;;;4.75;1.30;;;;;;;26.43;48.76;101848.94;4983273;28;20030;-75
2022/05/26 09:23:47;;;;;;;3.17;0.73;;;;;;;26.48;47.05;101850.97;4981128;28;20031;-75
2022/05/26 09:26:20;;;;;;;2.72;0.70;;;;;;;25.22;48.06;101854.22;4983068;28;20117;-75
2022/05/26 09:28:49;;;;;;;3.80;0.70;;;;;;;25.39;49.58;101859.84;4981947;28;20038;-75
2022/05/26 09:31:21;;;;;;;3.53;0.80;;;;;;;25.78;49.03;101852.34;4979404;28;20117;-75
2022/05/26 09:34:08;;;;;;;4.20;0.70;;;;;;;25.82;49.68;101853.50;4980537;28;20035;-75
2022/05/26 09:36:52;;;;;;;3.38;0.60;;;;;;;24.75;49.37;101847.53;4982864;28;20050;-75
2022/05/26 09:39:34;;;;;;;2.85;0.52;;;;;;;24.18;49.69;101852.88;4981404;28;20097;-75
2022/05/26 09:42:01;;;;;;;2.92;0.70;;;;;;;24.54;48.57;101868.47;4984654;28;20134;-75
2022/05/26 09:44:53;;;;;;;5.20;0.85;;;;;;;23.71;51.12;101857.63;4981478;28;20014;-75
2022/05/26 09:47:34;;;;;;;3.65;0.63;;;;;;;23.21;51.61;101863.53;4980041;28;20467;-75
2022/05/26 09:50:04;;;;;;;2.00;0.45;;;;;;;22.09;52.21;101838.97;4980980;28;20113;-75
2022/05/26 09:52:48;;;;;;;4.90;0.98;;;;;;;22.23;53.83;101865.94;4979915;28;20030;-75
2022/05/26 09:55:21;;;;;;;2.30;0.80;;;;;;;21.96;54.46;101865.81;4981566;28;20034;-75
2022/05/26 09:57:47;;;;;;;4.32;1.30;;;;;;;22.43;54.58;101861.44;4980105;28;20038;-75
2022/05/26 10:00:30;;;;;;;3.40;0.60;;;;;;;23.12;53.41;101854.84;4978172;28;20026;-75
2022/05/26 10:02:57;;;;;;;4.40;0.60;;;;;;;23.96;52.15;101871.25;4978424;28;20100;-75
2022/05/26 10:05:52;;;;;;;2.38;0.55;;;;;;;24.52;51.38;101867.84;4977274;28;20117;-75
2022/05/26 10:08:37;;;;;;;7.65;1.08;;;;;;;23.77;49.72;101862.19;4977865;28;20491;-75
2022/05/26 10:11:19;;;;;;;2.58;0.38;;;;;;;24.00;50.92;101864.41;4982394;28;20026;-75
2022/05/26 10:14:03;;;;;;;3.47;0.60;;;;;;;25.27;49.56;101880.53;4981216;28;20019;-75
2022/05/26 10:16:58;;;;;;;4.68;0.65;;;;;;;26.00;47.98;101865.38;4980900;28;20033;-75
2022/05/26 10:19:29;;;;;;;3.75;0.55;;;;;;;25.45;48.18;101868.94;4978851;28;20117;-75
2022/05/26 10:22:02;;;;;;;5.03;0.80;;;;;;;24.60;48.36;101882.94;4982262;28;20534;-75
2022/05/26 10:24:59;;;;;;;3.10;0.65;;;;;;;23.84;50.64;101883.75;4979356;28;20081;-75
2022/05/26 10:27:48;;;;;;;3.85;0.88;;;;;;;23.42;50.75;101887.53;4961260;28;20047;-74
2022/05/26 10:30:42;;;;;;;4.22;0.90;;;;;;;22.65;52.58;101848.66;4978283;28;20019;-75
2022/05/26 10:33:11;;;;;;;3.90;0.60;;;;;;;22.54;52.53;101870.78;4969271;28;20049;-75
2022/05/26 10:35:48;;;;;;;3.50;0.70;;;;;;;23.17;53.12;101860.47;4980464;28;20031;-75
2022/05/26 10:38:39;;;;;;;1.73;0.60;;;;;;;23.78;52.25;101851.22;4967320;28;20490;-75
2022/05/26 10:41:30;;;;;;;3.05;0.80;;;;;;;25.63;49.84;101859.97;4982730;28;20340;-75
2022/05/26 10:44:04;;;;;;;3.38;1.05;;;;;;;25.92;48.63;101857.59;4980710;28;20034;-75
2022/05/26 10:46:34;;;;;;;2.92;0.77;;;;;;;26.60;47.72;101859.97;4980509;28;20045;-75
2022/05/26 10:49:17;;;;;;;2.58;0.57;;;;;;;26.09;47.66;101864.03;4979467;28;20031;-75
2022/05/26 10:51:46;;;;;;;4.20;0.70;;;;;;;25.15;48.75;101863.38;4979438;28;20065;-75
2022/05/26 10:54:35;;;;;;;4.32;0.60;;;;;;;25.83;48.60;101870.59;4981126;28;20066;-75
2022/05/26 10:57:08;;;;;;;2.25;0.70;;;;;;;26.06;46.72;101859.06;4980307;28;20031;-75
2022/05/26 10:59:39;;;;;;;2.60;0.70;;;;;;;27.00;46.44;101851.19;4978433;28;20425;-75
2022/05/26 11:02:49;;;;;;;2.83;0.50;;;;;;;27.88;44.31;101854.72;4980898;28;20023;-75
2022/05/26 11:05:29;;;;;;;5.00;0.75;;;;;;;27.77;44.31;101846.63;4918065;29;20044;-75
2022/05/26 11:08:09;;;;;;;2.42;0.88;;;;;;;26.90;45.93;101863.66;4902988;29;20401;-75
2022/05/26 11:10:50;;;;;;;3.92;0.85;;;;;;;26.28;46.68;101851.25;4917646;29;20254;-75
2022/05/26 11:13:51;;;;;;;7.22;1.08;;;;;;;26.04;47.00;101863.88;4914038;29;20111;-75
2022/05/26 11:19:20;;;;;;;3.38;0.80;;;;;;;26.66;46.56;101845.50;4898553;29;20103;-75
2022/05/26 11:21:45;;;;;;;2.55;0.52;;;;;;;26.30;46.95;101845.63;4896562;29;20047;-75
2022/05/26 11:24:11;;;;;;;3.40;1.00;;;;;;;26.03;48.44;101849.53;4897311;29;20040;-75
2022/05/26 11:27:10;;;;;;;3.50;0.80;;;;;;;25.24;48.95;101840.47;4899161;29;20052;-74
2022/05/26 11:29:44;;;;;;;3.45;0.82;;;;;;;25.37;50.53;101840.34;4896659;29;20087;-75
2022/05/26 11:36:07;;;;;;;4.30;0.90;;;;;;;25.06;49.48;101841.22;4896738;29;20131;-75
2022/05/26 11:38:01;;;;;;;5.57;1.10;;;;;;;24.72;50.01;101831.78;4898558;29;20041;-74
2022/05/26 11:40:35;;;;;;;6.20;0.70;;;;;;;23.83;51.70;101838.97;4896985;29;20522;-74
2022/05/26 11:43:02;;;;;;;6.40;1.00;;;;;;;23.32;54.16;101848.59;4902503;29;20503;-74
2022/05/26 11:45:35;;;;;;;7.72;0.70;;;;;;;22.65;54.20;101854.03;4900608;29;20040;-74
2022/05/26 11:48:01;;;;;;;4.03;0.63;;;;;;;21.93;54.88;101856.31;4899602;29;20031;-74
2022/05/26 11:50:49;;;;;;;4.43;1.17;;;;;;;21.24;56.54;101856.31;4899951;29;20066;-74
2022/05/26 11:53:30;;;;;;;3.05;0.98;;;;;;;21.12;57.68;101858.69;4949235;28;20070;-74
2022/05/26 11:56:04;;;;;;;3.45;0.70;;;;;;;21.05;57.64;101852.47;4979575;28;20026;-74
2022/05/26 11:58:35;;;;;;;5.00;0.90;;;;;;;21.24;58.27;101845.56;4977894;28;20094;-74
2022/05/26 12:01:12;;;;;;;3.42;1.00;;;;;;;21.12;57.79;101847.97;4977109;28;20050;-74
2022/05/26 12:03:56;;;;;;;1.58;0.50;;;;;;;21.11;58.60;101846.31;4979840;28;20035;-74
2022/05/26 12:06:33;;;;;;;4.13;0.80;;;;;;;21.90;56.93;101842.44;4980075;28;20026;-75
2022/05/26 12:09:18;;;;;;;5.72;0.98;;;;;;;22.47;55.33;101824.19;4978150;28;20023;-74
2022/05/26 12:12:02;;;;;;;2.45;0.50;;;;;;;22.21;54.41;101835.69;4964138;28;20113;-74
2022/05/26 12:14:34;;;;;;;4.70;1.25;;;;;;;21.92;56.43;101843.88;4981461;28;20759;-74
2022/05/26 12:17:31;;;;;;;2.88;0.85;;;;;;;21.49;58.00;101843.28;4978317;28;20037;-74